createdAt,value
2022-10-21T00:01:09.660Z,33.53
2022-10-21T00:03:38.511Z,34.20
2022-10-21T00:06:07.348Z,33.33
2022-10-21T00:08:36.436Z,35.43
2022-10-21T00:11:08.184Z,34.43
2022-10-21T00:13:39.693Z,35.17
2022-10-21T00:16:10.656Z,32.60
2022-10-21T00:18:40.779Z,33.33
2022-10-21T00:21:10.571Z,34.63
2022-10-21T00:23:39.168Z,33.47
2022-10-21T00:26:09.494Z,34.53
2022-10-21T00:28:37.897Z,34.77
2022-10-21T00:31:08.849Z,34.07
2022-10-21T00:33:37.980Z,33.37
2022-10-21T00:36:08.171Z,34.37
2022-10-21T00:38:37.128Z,34.23
2022-10-21T00:41:05.351Z,32.83
2022-10-21T00:43:34.827Z,33.67
2022-10-21T00:46:07.802Z,33.63
2022-10-21T00:48:39.792Z,33.77
2022-10-21T00:51:12.685Z,34.60
2022-10-21T00:53:46.366Z,31.87
2022-10-21T00:56:20.224Z,32.93
2022-10-21T00:58:51.167Z,35.03
2022-10-21T01:01:21.574Z,33.37
2022-10-21T01:03:51.479Z,33.50
2022-10-21T01:06:24.561Z,33.83
2022-10-21T01:08:55.389Z,33.03
2022-10-21T01:11:25.441Z,32.53
2022-10-21T01:14:15.999Z,33.53
2022-10-21T01:16:49.598Z,33.43
2022-10-21T01:19:45.153Z,33.10
2022-10-21T01:22:26.941Z,33.57
2022-10-21T01:25:36.691Z,33.47
2022-10-21T01:28:19.138Z,32.60
2022-10-21T01:30:53.883Z,32.87
2022-10-21T01:33:42.366Z,32.93
2022-10-21T01:36:30.001Z,33.17
2022-10-21T01:39:13.966Z,33.30
2022-10-21T01:41:47.915Z,33.30
2022-10-21T01:44:24.174Z,33.70
2022-10-21T01:46:59.943Z,31.87
2022-10-21T01:49:33.471Z,32.13
2022-10-21T01:52:03.837Z,33.50
2022-10-21T01:54:36.671Z,31.20
2022-10-21T01:57:07.704Z,32.33
2022-10-21T01:59:37.087Z,32.47
2022-10-21T02:02:09.161Z,33.50
2022-10-21T02:04:40.350Z,31.00
2022-10-21T02:07:09.258Z,32.47
2022-10-21T02:09:37.372Z,32.70
2022-10-21T02:12:07.814Z,32.07
2022-10-21T02:14:42.136Z,31.37
2022-10-21T02:17:15.950Z,32.50
2022-10-21T02:19:44.244Z,31.23
2022-10-21T02:22:17.272Z,31.67
2022-10-21T02:24:52.573Z,31.03
2022-10-21T02:27:21.502Z,30.27
2022-10-21T02:29:54.532Z,30.27
2022-10-21T02:32:32.989Z,30.70
2022-10-21T02:35:18.390Z,30.80
2022-10-21T02:37:53.671Z,30.17
2022-10-21T02:40:27.878Z,31.67
2022-10-21T02:43:00.817Z,30.20
2022-10-21T02:45:28.958Z,30.57
2022-10-21T02:47:58.431Z,30.47
2022-10-21T02:50:26.969Z,30.47
2022-10-21T02:52:55.090Z,30.50
2022-10-21T02:55:23.247Z,29.30
2022-10-21T02:57:51.443Z,30.57
2022-10-21T03:00:19.861Z,30.10
2022-10-21T03:02:47.937Z,32.27
2022-10-21T03:05:17.685Z,35.07
2022-10-21T03:07:45.886Z,32.63
2022-10-21T03:10:14.047Z,34.87
2022-10-21T03:12:42.114Z,32.60
2022-10-21T03:15:11.563Z,33.37
2022-10-21T03:17:39.914Z,34.43
2022-10-21T03:20:09.150Z,32.13
2022-10-21T03:22:38.562Z,34.30
2022-10-21T03:25:08.359Z,31.97
2022-10-21T03:27:36.485Z,32.53
2022-10-21T03:30:06.346Z,35.10
2022-10-21T03:32:34.639Z,33.37
2022-10-21T03:35:02.804Z,36.07
2022-10-21T03:37:30.918Z,32.87
2022-10-21T03:40:02.076Z,35.93
2022-10-21T03:42:30.166Z,37.27
2022-10-21T03:44:58.383Z,34.00
2022-10-21T03:47:26.655Z,34.40
2022-10-21T03:49:54.714Z,35.07
2022-10-21T03:52:22.770Z,34.53
2022-10-21T03:54:50.884Z,32.77
2022-10-21T03:57:20.299Z,33.30
2022-10-21T03:59:48.427Z,31.93
2022-10-21T04:02:16.501Z,33.93
2022-10-21T04:04:44.619Z,33.43
2022-10-21T04:07:12.772Z,34.60
2022-10-21T04:09:41.067Z,33.50
2022-10-21T04:12:09.201Z,31.50
2022-10-21T04:14:38.875Z,32.47
2022-10-21T04:17:07.838Z,31.10
2022-10-21T04:19:36.223Z,33.17
2022-10-21T04:22:04.470Z,32.47
2022-10-21T04:24:32.563Z,32.97
2022-10-21T04:27:00.704Z,31.97
2022-10-21T04:29:28.831Z,31.23
2022-10-21T04:31:58.666Z,33.50
2022-10-21T04:34:26.914Z,33.20
2022-10-21T04:36:55.044Z,32.33
2022-10-21T04:39:23.147Z,33.37
2022-10-21T04:41:52.880Z,34.20
2022-10-21T04:44:21.064Z,32.37
2022-10-21T04:46:49.246Z,31.13
2022-10-21T04:49:18.941Z,34.33
2022-10-21T04:51:47.104Z,34.57
2022-10-21T04:54:15.477Z,34.57
2022-10-21T04:56:44.046Z,35.23
2022-10-21T04:59:12.455Z,31.83
2022-10-21T05:01:40.541Z,32.20
2022-10-21T05:04:08.936Z,32.80
2022-10-21T05:06:38.438Z,33.13
2022-10-21T05:09:06.616Z,31.40
2022-10-21T05:11:34.863Z,32.27
2022-10-21T05:14:03.513Z,33.20
2022-10-21T05:16:31.684Z,33.03
2022-10-21T05:19:00.483Z,31.97
2022-10-21T05:21:28.738Z,32.80
2022-10-21T05:23:58.232Z,32.20
2022-10-21T05:26:28.815Z,32.13
2022-10-21T05:28:56.971Z,31.80
2022-10-21T05:31:25.307Z,32.43
2022-10-21T05:33:53.412Z,31.47
2022-10-21T05:36:23.973Z,32.47
2022-10-21T05:38:52.883Z,30.93
2022-10-21T05:41:22.620Z,29.67
2022-10-21T05:43:50.689Z,30.93
2022-10-21T05:46:18.837Z,31.90
2022-10-21T05:51:25.439Z,31.00
2022-10-21T05:53:54.107Z,31.83
2022-10-21T05:56:24.147Z,30.70
2022-10-21T05:58:52.494Z,31.00
2022-10-21T06:01:20.674Z,31.13
2022-10-21T06:03:48.766Z,32.43
2022-10-21T06:06:16.810Z,31.33
2022-10-21T06:08:44.956Z,30.60
2022-10-21T06:11:16.289Z,32.10
2022-10-21T06:13:47.116Z,30.57
2022-10-21T06:16:16.236Z,32.23
2022-10-21T06:18:44.713Z,31.10
2022-10-21T06:21:13.188Z,31.53
2022-10-21T06:23:41.495Z,31.07
2022-10-21T06:26:13.195Z,33.83
2022-10-21T06:28:43.744Z,30.87
2022-10-21T06:31:16.692Z,31.77
2022-10-21T06:33:45.243Z,30.97
2022-10-21T06:36:13.297Z,33.43
2022-10-21T06:38:41.493Z,31.87
2022-10-21T06:41:13.652Z,32.33
2022-10-21T06:43:42.590Z,32.13
2022-10-21T06:46:16.151Z,32.50
2022-10-21T06:48:44.443Z,32.87
2022-10-21T06:51:16.046Z,32.10
2022-10-21T06:53:44.693Z,34.30
2022-10-21T06:56:16.475Z,33.87
2022-10-21T06:58:46.475Z,33.03
2022-10-21T07:01:33.529Z,31.77
2022-10-21T07:04:07.351Z,33.47
2022-10-21T07:06:35.852Z,32.13
2022-10-21T07:09:04.489Z,32.93
2022-10-21T07:11:32.853Z,33.33
2022-10-21T07:14:02.282Z,32.90
2022-10-21T07:16:34.423Z,32.60
2022-10-21T07:19:02.848Z,32.60
2022-10-21T07:21:32.620Z,32.47
2022-10-21T07:24:01.779Z,32.97
2022-10-21T07:26:32.528Z,32.90
2022-10-21T07:29:01.178Z,33.27
2022-10-21T07:31:36.408Z,34.23
2022-10-21T07:34:06.464Z,33.93
2022-10-21T07:36:38.021Z,34.43
2022-10-21T07:39:10.013Z,31.87
2022-10-21T07:41:42.069Z,33.80
2022-10-21T07:44:11.389Z,32.07
2022-10-21T07:46:42.583Z,30.83
2022-10-21T07:49:12.634Z,30.97
2022-10-21T07:51:41.095Z,32.47
2022-10-21T07:54:10.280Z,30.67
2022-10-21T07:56:42.964Z,30.53
2022-10-21T07:59:13.242Z,31.00
2022-10-21T08:01:45.832Z,31.87
2022-10-21T08:04:16.594Z,32.13
2022-10-21T08:06:46.104Z,31.70
2022-10-21T08:09:14.625Z,32.93
2022-10-21T08:11:42.978Z,30.80
2022-10-21T08:14:11.847Z,31.30
2022-10-21T08:16:41.900Z,30.97
2022-10-21T08:19:11.389Z,31.93
2022-10-21T08:21:39.551Z,29.67
2022-10-21T08:24:08.171Z,29.17
2022-10-21T08:26:36.334Z,32.03
2022-10-21T08:29:05.190Z,30.67
2022-10-21T08:31:33.295Z,31.20
2022-10-21T08:34:03.098Z,29.90
2022-10-21T08:36:31.251Z,28.73
2022-10-21T08:38:59.842Z,29.03
2022-10-21T08:42:02.861Z,28.20
2022-10-21T08:44:56.973Z,29.10
2022-10-21T08:47:37.309Z,28.37
2022-10-21T08:50:19.414Z,27.83
2022-10-21T08:52:51.387Z,27.67
2022-10-21T08:55:24.412Z,28.47
2022-10-21T08:57:54.606Z,27.73
2022-10-21T09:00:26.432Z,26.77
2022-10-21T09:03:08.482Z,27.00
2022-10-21T09:06:13.917Z,25.20
2022-10-21T09:09:05.629Z,25.30
2022-10-21T09:11:57.388Z,26.03
2022-10-21T09:14:57.257Z,24.20
2022-10-21T09:18:02.048Z,25.03
2022-10-21T09:20:52.137Z,23.70
2022-10-21T09:23:54.814Z,24.00
2022-10-21T09:26:37.685Z,26.40
2022-10-21T09:29:30.622Z,23.47
2022-10-21T09:32:12.696Z,23.67
2022-10-21T09:34:54.898Z,23.90
2022-10-21T09:37:35.382Z,23.93
2022-10-21T09:40:17.831Z,23.47
2022-10-21T09:42:47.837Z,22.70
2022-10-21T09:45:25.098Z,21.17
2022-10-21T09:47:59.554Z,22.07
2022-10-21T09:50:29.243Z,20.80
2022-10-21T09:53:06.985Z,21.20
2022-10-21T09:55:35.249Z,20.83
2022-10-21T09:58:05.414Z,19.67
2022-10-21T10:00:49.033Z,19.33
2022-10-21T10:03:36.334Z,18.37
2022-10-21T10:06:06.499Z,17.73
2022-10-21T10:08:40.012Z,18.30
2022-10-21T10:11:21.704Z,18.30
2022-10-21T10:13:53.052Z,17.90
2022-10-21T10:16:27.190Z,17.80
2022-10-21T10:19:13.204Z,16.20
2022-10-21T10:21:41.351Z,15.80
2022-10-21T10:24:18.890Z,15.03
2022-10-21T10:26:48.343Z,16.13
2022-10-21T10:29:26.820Z,15.43
2022-10-21T10:31:57.786Z,15.70
2022-10-21T10:34:31.856Z,16.00
2022-10-21T10:37:09.697Z,14.70
2022-10-21T10:39:41.071Z,13.93
2022-10-21T10:42:09.545Z,14.43
2022-10-21T10:44:41.019Z,13.57
2022-10-21T10:47:20.961Z,13.60
2022-10-21T10:49:49.644Z,13.47
2022-10-21T10:52:24.358Z,13.27
2022-10-21T10:55:19.857Z,13.30
2022-10-21T10:58:06.164Z,13.83
2022-10-21T11:00:43.806Z,14.00
2022-10-21T11:03:18.714Z,12.67
2022-10-21T11:05:52.193Z,12.80
2022-10-21T11:08:33.938Z,12.67
2022-10-21T11:11:08.495Z,13.10
2022-10-21T11:13:42.089Z,12.97
2022-10-21T11:16:27.275Z,12.20
2022-10-21T11:19:04.415Z,11.50
2022-10-21T11:21:46.341Z,11.87
2022-10-21T11:25:02.661Z,11.67
2022-10-21T11:27:55.600Z,12.60
2022-10-21T11:30:31.153Z,12.07
2022-10-21T11:33:13.551Z,12.03
2022-10-21T11:35:57.813Z,12.07
2022-10-21T11:38:48.734Z,12.40
2022-10-21T11:41:30.825Z,12.30
2022-10-21T11:44:16.291Z,11.70
2022-10-21T11:46:57.337Z,11.40
2022-10-21T11:49:42.727Z,11.00
2022-10-21T11:52:25.300Z,11.00
2022-10-21T11:55:32.061Z,11.17
2022-10-21T11:58:15.918Z,9.90
2022-10-21T12:00:55.414Z,10.63
2022-10-21T12:03:48.662Z,9.90
2022-10-21T12:06:30.269Z,9.57
2022-10-21T12:09:02.863Z,10.30
2022-10-21T12:11:39.915Z,9.73
2022-10-21T12:14:30.183Z,10.07
2022-10-21T12:17:04.348Z,9.73
2022-10-21T12:19:33.035Z,9.90
2022-10-21T12:22:01.662Z,10.23
2022-10-21T12:24:44.879Z,10.37
2022-10-21T12:27:23.060Z,9.67
2022-10-21T12:30:04.362Z,10.53
2022-10-21T12:32:44.831Z,10.80
2022-10-21T12:35:21.216Z,10.27
2022-10-21T12:38:22.380Z,10.40
2022-10-21T12:40:51.948Z,10.70
2022-10-21T12:43:27.165Z,10.20
2022-10-21T12:46:08.288Z,9.70
2022-10-21T12:48:44.212Z,10.00
2022-10-21T12:51:21.282Z,10.33
2022-10-21T12:53:53.572Z,9.93
2022-10-21T12:56:32.396Z,9.93
2022-10-21T12:59:04.385Z,9.77
2022-10-21T13:01:43.613Z,9.73
2022-10-21T13:04:48.704Z,9.47
2022-10-21T13:07:40.829Z,9.13
2022-10-21T13:10:28.458Z,10.20
2022-10-21T13:13:39.294Z,9.43
2022-10-21T13:16:41.966Z,9.23
2022-10-21T13:19:35.044Z,10.07
2022-10-21T13:22:12.932Z,9.33
2022-10-21T13:24:42.718Z,9.97
2022-10-21T13:27:28.948Z,10.13
2022-10-21T13:29:58.065Z,10.17
2022-10-21T13:32:30.083Z,11.67
2022-10-21T13:35:22.980Z,10.70
2022-10-21T13:37:58.095Z,11.10
2022-10-21T13:40:33.001Z,11.87
2022-10-21T13:43:04.478Z,11.10
2022-10-21T13:45:37.181Z,11.90
2022-10-21T13:48:09.005Z,11.63
2022-10-21T13:50:42.082Z,11.27
2022-10-21T13:53:29.549Z,11.43
2022-10-21T13:56:01.387Z,10.83
2022-10-21T13:58:36.097Z,11.57
2022-10-21T14:01:12.983Z,11.10
2022-10-21T14:03:42.279Z,11.10
2022-10-21T14:06:13.439Z,12.10
2022-10-21T14:08:46.940Z,11.17
2022-10-21T14:11:21.139Z,11.50
2022-10-21T14:13:51.512Z,11.20
2022-10-21T14:16:30.480Z,10.80
2022-10-21T14:18:59.461Z,11.23
2022-10-21T14:21:32.250Z,11.30
2022-10-21T14:24:01.917Z,11.03
2022-10-21T14:26:32.983Z,11.33
2022-10-21T14:29:02.529Z,11.40
2022-10-21T14:31:31.019Z,11.43
2022-10-21T14:33:59.461Z,11.20
2022-10-21T14:36:28.681Z,12.47
2022-10-21T14:39:03.016Z,11.57
2022-10-21T14:41:35.516Z,11.97
2022-10-21T14:44:13.082Z,11.73
2022-10-21T14:46:44.054Z,12.43
2022-10-21T14:49:24.203Z,12.37
2022-10-21T14:51:59.376Z,12.63
2022-10-21T14:54:38.607Z,12.43
2022-10-21T14:57:06.825Z,13.17
2022-10-21T14:59:40.776Z,12.50
2022-10-21T15:02:20.377Z,13.00
2022-10-21T15:04:53.971Z,13.57
2022-10-21T15:07:30.474Z,13.17
2022-10-21T15:10:19.377Z,12.60
2022-10-21T15:12:51.393Z,11.90
2022-10-21T15:15:53.275Z,12.23
2022-10-21T15:18:25.283Z,11.07
2022-10-21T15:20:57.305Z,11.27
2022-10-21T15:23:30.832Z,10.60
2022-10-21T15:26:05.641Z,11.10
2022-10-21T15:28:36.543Z,10.67
2022-10-21T15:31:10.567Z,10.60
2022-10-21T15:33:38.653Z,10.40
2022-10-21T15:36:09.492Z,9.83
2022-10-21T15:38:38.321Z,9.00
2022-10-21T15:41:10.629Z,8.70
2022-10-21T15:43:38.748Z,8.43
2022-10-21T15:46:07.332Z,8.70
2022-10-21T15:48:35.791Z,8.53
2022-10-21T15:51:03.947Z,8.50
2022-10-21T15:53:32.211Z,8.20
2022-10-21T15:56:02.217Z,7.07
2022-10-21T15:58:32.194Z,6.90
2022-10-21T16:01:00.482Z,6.80
2022-10-21T16:03:29.347Z,6.83
2022-10-21T16:05:58.030Z,6.33
2022-10-21T16:08:26.130Z,5.90
2022-10-21T16:10:54.877Z,6.27
2022-10-21T16:13:23.142Z,6.83
2022-10-21T16:15:52.790Z,6.03
2022-10-21T16:18:20.878Z,5.77
2022-10-21T16:20:55.103Z,6.00
2022-10-21T16:23:23.194Z,5.60
2022-10-21T16:25:51.373Z,6.13
2022-10-21T16:28:19.484Z,6.30
2022-10-21T16:30:47.570Z,7.80
2022-10-21T16:33:17.165Z,6.30
2022-10-21T16:35:48.562Z,5.77
2022-10-21T16:38:16.786Z,6.70
2022-10-21T16:40:45.055Z,6.90
2022-10-21T16:43:14.579Z,6.13
2022-10-21T16:45:44.120Z,5.80
2022-10-21T16:48:12.336Z,5.77
2022-10-21T16:50:47.033Z,6.23
2022-10-21T16:53:17.580Z,6.57
2022-10-21T16:55:46.048Z,7.10
2022-10-21T16:58:14.324Z,6.83
2022-10-21T17:00:42.551Z,7.40
2022-10-21T17:03:12.578Z,7.20
2022-10-21T17:05:42.125Z,7.10
2022-10-21T17:08:10.279Z,7.87
2022-10-21T17:10:38.485Z,7.87
2022-10-21T17:13:06.602Z,7.23
2022-10-21T17:15:34.689Z,7.03
2022-10-21T17:18:02.881Z,8.50
2022-10-21T17:20:32.754Z,8.13
2022-10-21T17:23:02.801Z,8.30
2022-10-21T17:25:34.237Z,7.53
2022-10-21T17:28:02.419Z,7.77
2022-10-21T17:30:30.611Z,8.87
2022-10-21T17:32:58.977Z,9.00
2022-10-21T17:35:27.089Z,8.80
2022-10-21T17:37:55.360Z,9.07
2022-10-21T17:40:27.751Z,8.97
2022-10-21T17:42:56.215Z,9.97
2022-10-21T17:45:24.309Z,10.00
2022-10-21T17:47:53.297Z,10.30
2022-10-21T17:50:24.377Z,10.73
2022-10-21T17:52:55.483Z,10.67
2022-10-21T17:55:25.056Z,11.50
2022-10-21T17:57:53.167Z,11.33
2022-10-21T18:00:21.577Z,11.90
2022-10-21T18:02:49.838Z,11.70
2022-10-21T18:05:18.367Z,12.40
2022-10-21T18:07:46.486Z,11.37
2022-10-21T18:10:14.627Z,12.10
2022-10-21T18:12:44.082Z,12.27
2022-10-21T18:15:12.771Z,12.60
2022-10-21T18:17:41.403Z,14.10
2022-10-21T18:20:11.209Z,12.93
2022-10-21T18:22:39.579Z,13.37
2022-10-21T18:25:16.869Z,13.27
2022-10-21T18:27:46.367Z,12.83
2022-10-21T18:30:32.225Z,12.77
2022-10-21T18:33:11.534Z,12.00
2022-10-21T18:35:40.426Z,12.30
2022-10-21T18:38:08.595Z,11.80
2022-10-21T18:40:43.732Z,12.13
2022-10-21T18:43:24.550Z,13.30
2022-10-21T18:45:58.730Z,12.73
2022-10-21T18:48:27.120Z,12.73
2022-10-21T18:50:58.802Z,12.10
2022-10-21T18:59:27.973Z,13.70
2022-10-21T19:02:04.372Z,14.10
2022-10-21T19:04:38.772Z,13.83
2022-10-21T19:07:21.273Z,13.97
2022-10-21T19:10:04.599Z,14.70
2022-10-21T19:16:11.620Z,15.60
2022-10-21T19:19:02.726Z,15.93
2022-10-21T19:21:33.393Z,15.17
2022-10-21T19:24:33.594Z,15.97
2022-10-21T19:27:35.707Z,16.03
2022-10-21T19:30:34.817Z,16.83
2022-10-21T19:33:19.311Z,16.57
2022-10-21T19:41:41.600Z,18.20
2022-10-21T19:47:53.821Z,18.77
2022-10-21T19:50:36.044Z,18.77
2022-10-21T19:53:11.659Z,20.90
2022-10-21T19:55:48.374Z,21.37
2022-10-21T19:58:39.038Z,21.10
2022-10-21T20:01:27.923Z,21.03
2022-10-21T20:04:06.634Z,21.07
2022-10-21T20:10:12.361Z,21.03
2022-10-21T20:12:51.034Z,20.00
2022-10-21T20:15:32.939Z,20.97
2022-10-21T20:18:19.671Z,20.23
2022-10-21T20:21:13.085Z,20.97
2022-10-21T20:23:50.959Z,21.90
2022-10-21T20:26:44.811Z,21.07
2022-10-21T20:29:32.022Z,21.53
2022-10-21T20:32:09.350Z,21.97
2022-10-21T20:34:58.066Z,21.23
2022-10-21T20:37:38.241Z,20.93
2022-10-21T20:43:33.486Z,20.97
2022-10-21T20:46:21.740Z,22.27
2022-10-21T20:49:01.438Z,22.97
2022-10-21T20:51:42.008Z,22.90
2022-10-21T20:54:18.512Z,21.63
2022-10-21T20:57:02.123Z,22.50
2022-10-21T20:59:47.333Z,23.33
2022-10-21T21:02:30.163Z,22.87
2022-10-21T21:05:29.725Z,23.53
2022-10-21T21:08:02.406Z,22.57
2022-10-21T21:10:34.434Z,23.30
2022-10-21T21:13:25.985Z,24.00
2022-10-21T21:16:22.826Z,24.10
2022-10-21T21:19:00.455Z,24.37
2022-10-21T21:21:35.689Z,24.30
2022-10-21T21:24:11.407Z,24.97
2022-10-21T21:27:16.646Z,23.73
2022-10-21T21:30:00.500Z,24.63
2022-10-21T21:38:29.756Z,30.07
2022-10-21T21:41:09.746Z,32.10
2022-10-21T21:46:48.426Z,32.23
2022-10-21T21:49:28.089Z,32.10
2022-10-21T21:52:10.592Z,31.67
2022-10-21T21:54:43.209Z,29.27
2022-10-21T21:57:27.721Z,29.67
2022-10-21T22:00:02.232Z,31.20
2022-10-21T22:02:45.566Z,28.80
2022-10-21T22:05:16.037Z,27.53
2022-10-21T22:07:57.341Z,27.27
2022-10-21T22:10:31.296Z,25.07
2022-10-21T22:13:06.769Z,24.20
2022-10-21T22:15:53.371Z,23.83
2022-10-21T22:18:36.100Z,22.70
2022-10-21T22:21:13.046Z,24.13
2022-10-21T22:23:50.319Z,24.07
2022-10-21T22:26:30.894Z,22.47
2022-10-21T22:29:09.107Z,23.80
2022-10-21T22:31:52.632Z,23.30
2022-10-21T22:34:32.216Z,24.43
2022-10-21T22:37:11.182Z,22.27
2022-10-21T22:39:46.233Z,22.40
2022-10-21T22:42:24.684Z,21.10
2022-10-21T22:44:56.151Z,23.00
2022-10-21T22:47:30.772Z,22.10
2022-10-21T22:50:16.755Z,22.43
2022-10-21T22:52:50.312Z,21.27
2022-10-21T22:55:23.096Z,21.50
2022-10-21T22:58:05.520Z,20.73
2022-10-21T23:03:25.938Z,20.73
2022-10-21T23:06:11.376Z,19.50
2022-10-21T23:08:50.801Z,17.37
2022-10-21T23:11:38.504Z,20.37
2022-10-21T23:14:13.454Z,18.37
2022-10-21T23:19:42.471Z,17.33
2022-10-21T23:22:29.248Z,16.27
2022-10-21T23:25:04.969Z,16.50
2022-10-21T23:30:51.657Z,16.00
2022-10-21T23:34:00.437Z,16.43
2022-10-21T23:36:48.217Z,17.00
2022-10-21T23:42:43.194Z,15.43
2022-10-21T23:45:21.757Z,15.03
2022-10-21T23:47:58.488Z,16.03
2022-10-21T23:50:31.963Z,15.20
2022-10-21T23:53:06.150Z,15.30
2022-10-21T23:55:55.474Z,15.97
2022-10-21T23:58:27.619Z,15.03
